Time;durP1;ratioP1;P1;durP2;ratioP2;P2;SDS_P1;SDS_P2;PMS_P1;PMS_P2;Temp;Humidity;BMP_temperature;BMP_pressure;BME280_temperature;BME280_humidity;BME280_pressure;Samples;Min_cycle;Max_cycle;Signal;HPM_P1;HPM_P2
2022/03/01 00:01:09;;;;;;;5.07;0.80;;;21.60;99.90;;;;;;6185695;23;20001;-73
2022/03/01 00:03:40;;;;;;;11.55;1.13;;;21.60;99.90;;;;;;6185764;23;19997;-72
2022/03/01 00:06:07;;;;;;;5.63;1.23;;;21.70;99.90;;;;;;6184166;23;20033;-71
2022/03/01 00:08:34;;;;;;;10.57;1.73;;;21.90;99.90;;;;;;6185594;23;20055;-73
2022/03/01 00:11:02;;;;;;;11.15;1.95;;;21.90;99.90;;;;;;6183938;23;20001;-72
2022/03/01 00:13:29;;;;;;;11.05;1.30;;;22.00;99.90;;;;;;6185584;23;20076;-71
2022/03/01 00:15:56;;;;;;;6.55;1.15;;;22.10;99.90;;;;;;6184014;23;20004;-72
2022/03/01 00:18:23;;;;;;;12.25;2.38;;;22.10;99.90;;;;;;6185666;23;20005;-72
2022/03/01 00:20:51;;;;;;;7.88;1.58;;;22.30;99.90;;;;;;6186000;23;20054;-75
2022/03/01 00:23:18;;;;;;;9.82;1.60;;;22.50;99.90;;;;;;6185519;23;20009;-74
2022/03/01 00:25:45;;;;;;;11.00;1.58;;;22.60;99.90;;;;;;6185552;23;20053;-74
2022/03/01 00:28:13;;;;;;;11.60;1.77;;;22.50;99.90;;;;;;6183744;23;20082;-72
2022/03/01 00:30:40;;;;;;;10.45;1.80;;;22.50;99.90;;;;;;6183771;23;20001;-71
2022/03/01 00:33:07;;;;;;;12.15;2.10;;;22.40;99.90;;;;;;6185480;23;20412;-71
2022/03/01 00:35:34;;;;;;;8.65;1.73;;;22.50;99.90;;;;;;6185484;23;20422;-72
2022/03/01 00:38:02;;;;;;;9.85;2.15;;;22.60;99.90;;;;;;6185396;23;20005;-72
2022/03/01 00:40:29;;;;;;;8.18;1.75;;;23.00;99.90;;;;;;6183692;23;20083;-71
2022/03/01 00:42:56;;;;;;;9.18;1.23;;;23.10;99.90;;;;;;6185398;23;20387;-71
2022/03/01 00:45:24;;;;;;;8.90;1.35;;;23.00;99.90;;;;;;6185406;23;20032;-71
2022/03/01 00:47:51;;;;;;;6.80;1.38;;;23.20;99.90;;;;;;6183526;23;20033;-72
2022/03/01 00:50:18;;;;;;;9.00;1.50;;;23.10;99.90;;;;;;6162873;23;20025;-72
2022/03/01 00:52:45;;;;;;;11.40;1.60;;;23.20;99.90;;;;;;6155666;23;19998;-71
2022/03/01 00:55:14;;;;;;;11.35;2.05;;;23.10;99.90;;;;;;6178619;23;20060;-73
2022/03/01 00:57:41;;;;;;;8.02;1.23;;;22.90;99.90;;;;;;6155599;23;20025;-72
2022/03/01 01:00:12;;;;;;;7.72;1.10;;;22.90;99.90;;;;;;6155446;23;20020;-72
2022/03/01 01:02:39;;;;;;;5.88;1.30;;;23.10;99.90;;;;;;6155666;23;20388;-72
2022/03/01 01:05:07;;;;;;;5.90;1.17;;;22.90;99.90;;;;;;6153669;23;20013;-71
2022/03/01 01:07:34;;;;;;;8.73;1.25;;;22.70;99.90;;;;;;6155483;23;20001;-72
2022/03/01 01:10:03;;;;;;;9.35;1.40;;;22.60;99.90;;;;;;6155394;23;20002;-73
2022/03/01 01:12:30;;;;;;;9.20;1.65;;;22.80;99.90;;;;;;6155514;23;20009;-72
2022/03/01 01:14:58;;;;;;;7.38;1.30;;;23.00;99.90;;;;;;6153780;23;20010;-72
2022/03/01 01:17:25;;;;;;;7.30;1.65;;;23.50;99.90;;;;;;6155678;23;20060;-72
2022/03/01 01:19:53;;;;;;;7.72;1.20;;;23.80;99.90;;;;;;6153816;23;20015;-72
2022/03/01 01:25:18;;;;;;;5.60;1.20;;;24.70;99.90;;;;;;6155513;23;20065;-73
2022/03/01 01:27:48;;;;;;;8.63;1.13;;;24.40;99.90;;;;;;6155506;23;20079;-73
2022/03/01 01:30:18;;;;;;;6.82;1.00;;;24.10;99.90;;;;;;6155409;23;20360;-73
2022/03/01 01:32:49;;;;;;;3.22;0.65;;;23.40;99.90;;;;;;6153712;23;20006;-73
2022/03/01 01:35:18;;;;;;;6.07;1.35;;;22.80;99.90;;;;;;6153740;23;20009;-74
2022/03/01 01:37:47;;;;;;;7.15;1.17;;;22.40;99.90;;;;;;6155254;23;20427;-74
2022/03/01 01:40:17;;;;;;;8.55;2.00;;;22.30;99.90;;;;;;6178839;23;20037;-73
2022/03/01 01:42:44;;;;;;;;;;;22.40;99.90;;;;;;6155929;23;20006;-73
2022/03/01 01:45:12;;;;;;;11.82;2.47;;;22.40;99.90;;;;;;6155284;23;19900;-73
2022/03/01 01:47:40;;;;;;;13.98;2.70;;;22.50;99.90;;;;;;6153600;23;20006;-74
2022/03/01 01:50:08;;;;;;;10.55;2.00;;;22.50;99.90;;;;;;6178053;23;20024;-73
2022/03/01 01:52:36;;;;;;;14.07;2.90;;;22.50;99.90;;;;;;6155310;23;20032;-74
2022/03/01 01:55:04;;;;;;;13.00;2.03;;;22.70;99.90;;;;;;6155256;23;20077;-73
2022/03/01 01:57:31;;;;;;;12.73;2.20;;;23.00;99.90;;;;;;6155245;23;20005;-73
2022/03/01 02:00:00;;;;;;;13.23;2.25;;;23.10;99.90;;;;;;6155146;23;20088;-72
2022/03/01 02:02:28;;;;;;;9.68;1.70;;;23.10;99.90;;;;;;6155200;23;20009;-73
2022/03/01 02:04:55;;;;;;;14.68;2.40;;;23.30;99.90;;;;;;6178325;23;20446;-72
2022/03/01 02:07:22;;;;;;;13.32;2.75;;;23.90;99.90;;;;;;6179649;23;20006;-72
2022/03/01 02:09:50;;;;;;;11.32;1.95;;;24.30;99.90;;;;;;6180207;23;20056;-72
2022/03/01 02:12:17;;;;;;;9.40;2.22;;;24.50;99.90;;;;;;6157009;23;20450;-72
2022/03/01 02:14:45;;;;;;;11.13;2.17;;;24.60;99.90;;;;;;6157050;23;19998;-72
2022/03/01 02:17:13;;;;;;;9.75;2.03;;;25.00;99.90;;;;;;6155270;23;20486;-71
2022/03/01 02:19:51;;;;;;;13.95;2.42;;;25.40;99.90;;;;;;6156956;23;20001;-72
2022/03/01 02:22:19;;;;;;;11.30;2.55;;;25.50;99.90;;;;;;6156876;23;20005;-71
2022/03/01 02:24:46;;;;;;;7.65;1.13;;;24.80;99.90;;;;;;6156789;23;20008;-71
2022/03/01 02:27:14;;;;;;;5.07;0.93;;;23.90;99.90;;;;;;6156668;23;20006;-71
2022/03/01 02:29:41;;;;;;;6.15;0.77;;;23.70;99.90;;;;;;6156862;23;20001;-71
2022/03/01 02:32:10;;;;;;;8.45;1.17;;;23.80;99.90;;;;;;6156715;23;20484;-71
2022/03/01 02:34:37;;;;;;;7.70;1.70;;;23.70;99.90;;;;;;6156935;23;20094;-72
2022/03/01 02:37:05;;;;;;;7.43;1.80;;;23.60;99.90;;;;;;6156576;23;20025;-72
2022/03/01 02:39:32;;;;;;;10.15;1.98;;;23.30;99.90;;;;;;6156720;23;20002;-71
2022/03/01 02:42:00;;;;;;;11.45;2.17;;;23.00;99.90;;;;;;6156620;23;20001;-71
2022/03/01 02:44:27;;;;;;;15.52;2.78;;;23.00;99.90;;;;;;6156726;23;20005;-71
2022/03/01 02:46:54;;;;;;;11.02;2.33;;;22.80;99.90;;;;;;6156450;23;20033;-73
2022/03/01 02:49:21;;;;;;;13.82;2.00;;;22.60;99.90;;;;;;6156361;23;20005;-72
2022/03/01 02:51:49;;;;;;;11.73;2.42;;;22.70;99.90;;;;;;6154948;23;20001;-72
2022/03/01 02:54:16;;;;;;;10.40;2.38;;;22.70;99.90;;;;;;6156606;23;20020;-72
2022/03/01 02:56:44;;;;;;;7.20;1.92;;;22.80;99.90;;;;;;6156472;23;20358;-70
2022/03/01 02:59:11;;;;;;;11.80;1.83;;;22.90;99.90;;;;;;6156568;23;20073;-71
2022/03/01 03:01:38;;;;;;;14.88;2.28;;;22.90;99.90;;;;;;6156460;23;20059;-71
2022/03/01 03:04:06;;;;;;;11.63;2.40;;;23.30;99.90;;;;;;6156355;23;20002;-71
2022/03/01 03:06:33;;;;;;;14.88;2.28;;;23.30;99.90;;;;;;6156258;23;20004;-71
2022/03/01 03:09:00;;;;;;;12.80;2.35;;;23.30;99.90;;;;;;6156593;23;20001;-71
2022/03/01 03:11:28;;;;;;;12.38;2.03;;;23.40;99.90;;;;;;6156396;23;20087;-71
2022/03/01 03:13:55;;;;;;;12.77;2.05;;;23.50;99.90;;;;;;6156453;23;20032;-71
2022/03/01 03:16:22;;;;;;;11.32;1.80;;;23.40;99.90;;;;;;6156351;23;20025;-70
2022/03/01 03:18:49;;;;;;;18.05;2.40;;;23.40;99.90;;;;;;6156266;23;20395;-71
2022/03/01 03:21:17;;;;;;;13.23;2.25;;;23.60;99.90;;;;;;6156354;23;20002;-71
2022/03/01 03:23:44;;;;;;;11.43;1.90;;;23.90;99.90;;;;;;6154568;23;20319;-71
2022/03/01 03:26:11;;;;;;;10.75;1.88;;;24.10;99.90;;;;;;6154618;23;20427;-72
2022/03/01 03:28:39;;;;;;;11.10;2.38;;;24.10;99.90;;;;;;6156060;23;20001;-71
2022/03/01 03:31:06;;;;;;;12.10;2.40;;;24.50;99.90;;;;;;6154921;23;20025;-72
2022/03/01 03:33:34;;;;;;;10.27;1.83;;;24.70;99.90;;;;;;6154509;23;20056;-71
2022/03/01 03:36:03;;;;;;;10.88;1.60;;;24.70;99.90;;;;;;6156197;23;20029;-71
2022/03/01 03:38:30;;;;;;;7.70;1.58;;;24.60;99.90;;;;;;6156125;23;20334;-72
2022/03/01 03:40:57;;;;;;;7.47;1.63;;;24.10;99.90;;;;;;6154557;23;20104;-71
2022/03/01 03:43:25;;;;;;;8.80;2.20;;;23.70;99.90;;;;;;6179064;23;20006;-72
2022/03/01 03:45:52;;;;;;;12.85;2.55;;;23.40;99.90;;;;;;6156113;23;20006;-72
2022/03/01 03:48:19;;;;;;;14.65;2.42;;;23.50;99.90;;;;;;6178997;23;20005;-72
2022/03/01 03:50:47;;;;;;;12.52;2.03;;;23.30;99.90;;;;;;6154123;23;20101;-72
2022/03/01 03:53:14;;;;;;;9.02;1.50;;;22.90;99.90;;;;;;6155976;23;20065;-71
2022/03/01 03:55:41;;;;;;;9.52;1.25;;;22.40;99.90;;;;;;6179092;23;20056;-71
2022/03/01 03:58:09;;;;;;;11.50;1.48;;;22.20;99.90;;;;;;6155695;23;20001;-72
2022/03/01 04:00:36;;;;;;;13.48;1.42;;;22.10;99.90;;;;;;6179020;23;20013;-72
2022/03/01 04:03:04;;;;;;;16.92;1.92;;;22.10;99.90;;;;;;6155764;23;20005;-73
2022/03/01 04:05:31;;;;;;;15.30;2.60;;;22.10;99.90;;;;;;6155792;23;20006;-72
2022/03/01 04:07:58;;;;;;;16.55;2.20;;;22.00;99.90;;;;;;6155467;23;20005;-73
2022/03/01 04:10:26;;;;;;;17.48;2.60;;;22.10;99.90;;;;;;6155622;23;20307;-72
2022/03/01 04:12:53;;;;;;;17.35;2.00;;;22.10;99.90;;;;;;6155826;23;20001;-72
2022/03/01 04:15:20;;;;;;;14.57;2.50;;;22.10;99.90;;;;;;6155695;23;20081;-73
2022/03/01 04:17:47;;;;;;;13.27;2.30;;;22.10;99.90;;;;;;6155767;23;20055;-72
2022/03/01 04:20:16;;;;;;;14.82;2.72;;;22.20;99.90;;;;;;6155768;23;20416;-71
2022/03/01 04:22:43;;;;;;;22.65;2.88;;;22.50;99.90;;;;;;6155779;23;20005;-72
2022/03/01 04:25:11;;;;;;;15.45;2.83;;;22.70;99.90;;;;;;6153950;23;20108;-72
2022/03/01 04:27:39;;;;;;;12.10;2.90;;;22.90;99.90;;;;;;6155531;23;20434;-72
2022/03/01 04:30:07;;;;;;;16.83;3.20;;;22.90;99.90;;;;;;6153669;23;20005;-72
2022/03/01 04:32:35;;;;;;;14.68;2.63;;;23.00;99.90;;;;;;6155795;23;20072;-72
2022/03/01 04:35:04;;;;;;;11.68;2.20;;;23.00;99.90;;;;;;6155550;23;20004;-71
2022/03/01 04:37:31;;;;;;;14.05;2.63;;;23.00;99.90;;;;;;6155568;23;20006;-71
2022/03/01 04:39:59;;;;;;;16.70;3.72;;;22.90;99.90;;;;;;6178477;23;20012;-72
2022/03/01 04:42:26;;;;;;;15.05;3.33;;;22.70;99.90;;;;;;6153863;23;20006;-72
2022/03/01 04:44:53;;;;;;;14.80;2.67;;;22.40;99.90;;;;;;6153741;23;20056;-72
2022/03/01 04:51:28;;;;;;;18.00;3.05;;;22.10;99.90;;;;;;6155162;23;20025;-70
2022/03/01 04:53:55;;;;;;;18.48;3.10;;;22.00;99.90;;;;;;6155474;23;20006;-71
2022/03/01 04:56:22;;;;;;;18.23;2.88;;;22.10;99.90;;;;;;6155421;23;20052;-71
2022/03/01 04:58:50;;;;;;;17.75;2.83;;;22.10;99.90;;;;;;6155333;23;20009;-71
2022/03/01 05:01:17;;;;;;;13.57;2.88;;;22.20;99.90;;;;;;6155364;23;20001;-71
2022/03/01 05:03:44;;;;;;;12.98;2.53;;;22.20;99.90;;;;;;6155187;23;20071;-73
2022/03/01 05:06:12;;;;;;;18.30;3.03;;;22.40;99.90;;;;;;6155316;23;20009;-73
2022/03/01 05:08:39;;;;;;;18.25;2.97;;;22.50;99.90;;;;;;6153504;23;20002;-74
2022/03/01 05:11:06;;;;;;;14.30;2.60;;;22.70;99.90;;;;;;6155227;23;20068;-73
2022/03/01 05:13:35;;;;;;;10.10;2.10;;;22.70;99.90;;;;;;6155261;23;19997;-74
2022/03/01 05:16:02;;;;;;;14.40;2.28;;;22.80;99.90;;;;;;6155278;23;20064;-72
2022/03/01 05:18:29;;;;;;;12.23;1.85;;;22.80;99.90;;;;;;6153458;23;20006;-72
2022/03/01 05:20:57;;;;;;;12.95;1.80;;;22.80;99.90;;;;;;6153375;23;20009;-72
2022/03/01 05:23:24;;;;;;;10.77;2.03;;;22.70;99.90;;;;;;6178536;23;20495;-72
2022/03/01 05:25:51;;;;;;;9.18;1.67;;;22.90;99.90;;;;;;6178240;23;20013;-72
2022/03/01 05:28:19;;;;;;;10.32;1.75;;;22.90;99.90;;;;;;6153493;23;20009;-73
2022/03/01 05:30:46;;;;;;;15.77;2.20;;;22.90;99.90;;;;;;6155310;23;20001;-72
2022/03/01 05:33:14;;;;;;;12.25;3.08;;;23.00;99.90;;;;;;6155261;23;20008;-73
2022/03/01 05:35:42;;;;;;;12.52;2.60;;;22.90;99.90;;;;;;6153632;23;20035;-72
2022/03/01 05:38:10;;;;;;;13.15;1.80;;;22.70;99.90;;;;;;6155354;23;20012;-72
2022/03/01 05:40:38;;;;;;;12.80;2.20;;;22.70;99.90;;;;;;6156154;23;20333;-72
2022/03/01 05:43:08;;;;;;;12.52;2.08;;;22.70;99.90;;;;;;6157307;23;20009;-73
2022/03/01 05:45:36;;;;;;;11.35;2.22;;;22.80;99.90;;;;;;6155589;23;20010;-72
2022/03/01 05:48:04;;;;;;;12.32;2.38;;;22.70;99.90;;;;;;6155436;23;20005;-73
2022/03/01 05:50:31;;;;;;;10.25;1.60;;;22.70;99.90;;;;;;6156793;23;20014;-72
2022/03/01 05:52:59;;;;;;;13.68;2.47;;;22.70;99.90;;;;;;6157144;23;20415;-71
2022/03/01 05:55:26;;;;;;;13.75;2.13;;;22.70;99.90;;;;;;6156787;23;20024;-71
2022/03/01 05:57:53;;;;;;;15.50;2.28;;;22.60;99.90;;;;;;6156793;23;20363;-71
2022/03/01 06:00:21;;;;;;;13.25;2.08;;;22.60;99.90;;;;;;6156984;23;20005;-71
2022/03/01 06:02:50;;;;;;;11.05;2.20;;;22.70;99.90;;;;;;6156724;23;20056;-71
2022/03/01 06:05:18;;;;;;;19.00;2.97;;;22.70;99.90;;;;;;6156896;23;20005;-71
2022/03/01 06:07:46;;;;;;;14.55;2.42;;;22.80;99.90;;;;;;6156576;23;20449;-71
2022/03/01 06:10:13;;;;;;;16.73;3.05;;;22.80;99.90;;;;;;6156986;23;20073;-70
2022/03/01 06:12:41;;;;;;;14.63;2.55;;;22.80;99.90;;;;;;6156843;23;20052;-71
2022/03/01 06:15:09;;;;;;;14.93;2.83;;;22.70;99.90;;;;;;6156994;23;19997;-71
2022/03/01 06:17:37;;;;;;;13.18;2.63;;;22.70;99.90;;;;;;6156794;23;20013;-70
2022/03/01 06:20:05;;;;;;;13.52;2.38;;;22.60;99.90;;;;;;6156836;23;20310;-71
2022/03/01 06:22:32;;;;;;;12.95;2.15;;;22.30;99.90;;;;;;6156646;23;20009;-71
2022/03/01 06:25:00;;;;;;;16.42;2.35;;;22.00;99.90;;;;;;6156637;23;20029;-72
2022/03/01 06:27:28;;;;;;;14.35;1.95;;;21.60;99.90;;;;;;6156549;23;20010;-71
2022/03/01 06:29:55;;;;;;;14.65;2.50;;;21.50;99.90;;;;;;6156614;23;20005;-71
2022/03/01 06:32:23;;;;;;;16.35;2.65;;;21.30;99.90;;;;;;6156576;23;19997;-72
2022/03/01 06:34:50;;;;;;;12.40;2.20;;;21.20;99.90;;;;;;6156788;23;20024;-72
2022/03/01 06:37:17;;;;;;;15.05;2.03;;;21.30;99.90;;;;;;6156661;23;20020;-71
2022/03/01 06:39:47;;;;;;;14.90;2.20;;;21.40;99.90;;;;;;6156850;23;20076;-73
2022/03/01 06:42:14;;;;;;;12.70;2.33;;;21.40;99.90;;;;;;6179721;23;20009;-71
2022/03/01 06:44:42;;;;;;;12.50;1.83;;;21.40;99.90;;;;;;6156644;23;20302;-71
2022/03/01 06:47:12;;;;;;;14.02;2.22;;;21.40;99.90;;;;;;6179633;23;20006;-71
2022/03/01 06:49:40;;;;;;;15.85;1.95;;;21.40;99.90;;;;;;6154647;23;20435;-71
2022/03/01 06:52:07;;;;;;;11.02;2.15;;;21.50;99.90;;;;;;6156281;23;20002;-72
2022/03/01 06:54:35;;;;;;;12.32;1.88;;;21.50;99.90;;;;;;6156571;23;20432;-70
2022/03/01 06:57:03;;;;;;;13.82;2.00;;;21.60;99.90;;;;;;6156530;23;20135;-70
2022/03/01 06:59:30;;;;;;;13.70;1.80;;;21.60;99.90;;;;;;6156317;23;20335;-70
2022/03/01 07:01:58;;;;;;;15.68;2.25;;;21.70;99.90;;;;;;6156334;23;20016;-71
2022/03/01 07:04:25;;;;;;;13.38;1.98;;;21.60;99.90;;;;;;6156197;23;20312;-71
2022/03/01 07:06:52;;;;;;;14.63;2.40;;;21.60;99.90;;;;;;6156390;23;20005;-71
2022/03/01 07:09:20;;;;;;;11.32;2.35;;;21.60;99.90;;;;;;6156294;23;20002;-71
2022/03/01 07:11:47;;;;;;;13.75;2.42;;;21.50;99.90;;;;;;6156453;23;19998;-71
2022/03/01 07:14:14;;;;;;;18.33;2.10;;;21.50;99.90;;;;;;6156244;23;20001;-71
2022/03/01 07:16:42;;;;;;;11.63;1.48;;;21.50;99.90;;;;;;6179414;23;20308;-71
2022/03/01 07:19:09;;;;;;;10.48;1.98;;;21.50;99.90;;;;;;6154475;23;20033;-71
2022/03/01 07:21:36;;;;;;;12.07;2.17;;;21.40;99.90;;;;;;6156364;23;20012;-72
2022/03/01 07:24:04;;;;;;;12.82;1.88;;;21.50;99.90;;;;;;6179427;23;20006;-72
2022/03/01 07:26:31;;;;;;;11.82;1.65;;;21.50;99.90;;;;;;6156252;23;20001;-71
2022/03/01 07:28:58;;;;;;;10.60;1.70;;;21.50;99.90;;;;;;6156048;23;20040;-71
2022/03/01 07:31:26;;;;;;;11.93;1.88;;;21.70;99.90;;;;;;6156306;23;20032;-72
2022/03/01 07:33:53;;;;;;;12.15;2.15;;;21.70;99.90;;;;;;6156236;23;20008;-72
2022/03/01 07:36:20;;;;;;;13.38;2.30;;;21.70;99.90;;;;;;6156193;23;19998;-72
2022/03/01 07:38:48;;;;;;;16.65;2.35;;;21.80;99.90;;;;;;6179114;23;20033;-72
2022/03/01 07:41:15;;;;;;;10.13;2.08;;;21.80;99.90;;;;;;6156150;23;20005;-71
2022/03/01 07:43:42;;;;;;;13.65;2.38;;;21.80;99.90;;;;;;6155914;23;20423;-72
2022/03/01 07:46:13;;;;;;;17.52;2.33;;;21.80;99.90;;;;;;6155857;23;20076;-71
2022/03/01 07:48:44;;;;;;;12.10;2.33;;;21.80;99.90;;;;;;6155755;23;20009;-72
2022/03/01 07:51:11;;;;;;;14.90;2.35;;;21.80;99.90;;;;;;6155826;23;20009;-72
2022/03/01 07:53:39;;;;;;;16.02;3.22;;;21.80;99.90;;;;;;6155867;23;19998;-72
2022/03/01 07:56:06;;;;;;;11.45;1.83;;;21.70;99.90;;;;;;6154196;23;20128;-72
2022/03/01 07:58:34;;;;;;;8.60;2.20;;;21.50;99.90;;;;;;6155823;23;20072;-72
2022/03/01 08:01:02;;;;;;;9.35;2.08;;;21.20;99.90;;;;;;6155816;23;20001;-74
2022/03/01 08:03:29;;;;;;;10.70;1.88;;;21.10;99.90;;;;;;6155335;23;20033;-73
2022/03/01 08:05:57;;;;;;;15.45;2.38;;;20.90;99.90;;;;;;6178769;23;20009;-73
2022/03/01 08:08:25;;;;;;;15.60;3.08;;;20.80;99.90;;;;;;6155705;23;20005;-72
2022/03/01 08:10:52;;;;;;;14.88;2.70;;;20.80;99.90;;;;;;6178786;23;20396;-74
2022/03/01 08:13:19;;;;;;;16.23;2.97;;;20.80;99.90;;;;;;6153953;23;20006;-72
2022/03/01 08:15:47;;;;;;;20.58;3.42;;;20.80;99.90;;;;;;6155585;23;20109;-73
2022/03/01 08:18:14;;;;;;;18.67;3.92;;;20.80;99.90;;;;;;6178872;23;20092;-74
2022/03/01 08:20:41;;;;;;;16.13;3.25;;;20.80;99.90;;;;;;6155560;23;20002;-72
2022/03/01 08:23:09;;;;;;;19.23;4.13;;;20.90;99.90;;;;;;6178737;23;20032;-72
2022/03/01 08:25:36;;;;;;;15.70;2.72;;;20.90;99.90;;;;;;6178695;23;20453;-71
2022/03/01 08:28:03;;;;;;;16.67;2.70;;;20.90;99.90;;;;;;6178699;23;20006;-71
2022/03/01 08:30:31;;;;;;;17.30;2.20;;;21.00;99.90;;;;;;6178541;23;20001;-72
2022/03/01 08:32:59;;;;;;;15.90;2.15;;;20.90;99.90;;;;;;6155556;23;20304;-71
2022/03/01 08:35:26;;;;;;;14.20;2.72;;;20.90;99.90;;;;;;6155426;23;20006;-72
2022/03/01 08:37:53;;;;;;;14.80;1.83;;;20.80;99.90;;;;;;6155558;23;20029;-71
2022/03/01 08:40:22;;;;;;;12.82;2.03;;;20.80;99.90;;;;;;6178531;23;20285;-71
2022/03/01 08:42:49;;;;;;;15.57;2.50;;;20.80;99.90;;;;;;6155561;23;20379;-71
2022/03/01 08:45:17;;;;;;;15.30;2.95;;;20.80;99.90;;;;;;6155434;23;20390;-71
2022/03/01 08:47:44;;;;;;;14.45;2.65;;;20.90;99.90;;;;;;6155421;23;20001;-73
2022/03/01 08:50:12;;;;;;;13.73;2.13;;;20.90;99.90;;;;;;6155165;23;20017;-71
2022/03/01 08:52:39;;;;;;;11.00;2.40;;;20.90;99.90;;;;;;6155321;23;20002;-71
2022/03/01 08:55:12;;;;;;;15.65;2.78;;;20.80;99.90;;;;;;6178667;23;20426;-71
2022/03/01 08:57:39;;;;;;;12.63;2.22;;;20.80;99.90;;;;;;6155628;23;20399;-72
2022/03/01 09:00:10;;;;;;;11.50;1.85;;;20.80;99.90;;;;;;6155533;23;20489;-72
2022/03/01 09:02:37;;;;;;;12.77;2.33;;;20.70;99.90;;;;;;6155460;23;20005;-72
2022/03/01 09:05:05;;;;;;;12.68;1.77;;;20.70;99.90;;;;;;6155443;23;20042;-72
2022/03/01 09:07:37;;;;;;;12.68;2.38;;;20.70;99.90;;;;;;6153724;23;20445;-73
2022/03/01 09:10:06;;;;;;;9.50;1.55;;;20.80;99.90;;;;;;6155525;23;19997;-72
2022/03/01 09:12:33;;;;;;;9.10;1.90;;;20.80;99.90;;;;;;6155431;23;20004;-73
2022/03/01 09:15:01;;;;;;;10.13;2.15;;;20.80;99.90;;;;;;6155805;23;20008;-73
2022/03/01 09:17:28;;;;;;;12.52;2.00;;;20.80;99.90;;;;;;6155842;23;20064;-72
2022/03/01 09:19:55;;;;;;;11.75;1.77;;;20.80;99.90;;;;;;6180689;23;20016;-73
2022/03/01 09:22:23;;;;;;;9.23;1.95;;;20.90;99.90;;;;;;6180635;23;20096;-73
2022/03/01 09:24:50;;;;;;;9.98;1.52;;;21.00;99.90;;;;;;6180624;23;20342;-72
2022/03/01 09:27:18;;;;;;;8.02;1.58;;;21.00;99.90;;;;;;6157304;23;20021;-72
2022/03/01 09:29:45;;;;;;;7.75;1.52;;;21.00;99.90;;;;;;6180673;23;20005;-71
2022/03/01 09:32:14;;;;;;;9.93;2.00;;;21.00;99.90;;;;;;6157348;23;20002;-71
2022/03/01 09:34:41;;;;;;;7.57;1.02;;;21.00;99.90;;;;;;6180432;23;20338;-70
2022/03/01 09:37:09;;;;;;;6.80;1.30;;;21.00;99.90;;;;;;6157349;23;20005;-70
2022/03/01 09:39:36;;;;;;;9.18;1.83;;;21.00;99.90;;;;;;6155552;23;20439;-71
2022/03/01 09:42:03;;;;;;;10.63;1.73;;;21.00;99.90;;;;;;6155540;23;20085;-71
2022/03/01 09:44:32;;;;;;;8.88;1.70;;;21.00;99.90;;;;;;6157116;23;20009;-71
2022/03/01 09:47:00;;;;;;;9.88;1.77;;;21.10;99.90;;;;;;6157158;23;20001;-71
2022/03/01 09:49:27;;;;;;;11.88;2.20;;;21.10;99.90;;;;;;6156914;23;20343;-71
2022/03/01 09:51:56;;;;;;;11.60;2.47;;;21.10;99.90;;;;;;6157159;23;20001;-71
2022/03/01 09:54:24;;;;;;;10.55;2.33;;;21.10;99.90;;;;;;6157145;23;20029;-71
2022/03/01 09:56:51;;;;;;;7.25;1.90;;;21.10;99.90;;;;;;6157151;23;20008;-71
2022/03/01 09:59:19;;;;;;;10.68;1.70;;;21.10;99.90;;;;;;6156973;23;20448;-71
2022/03/01 10:01:54;;;;;;;8.02;1.38;;;21.10;99.90;;;;;;6180051;23;20008;-70
2022/03/01 10:04:21;;;;;;;7.82;1.73;;;21.10;99.90;;;;;;6180115;23;20005;-71
2022/03/01 10:06:50;;;;;;;10.15;1.75;;;21.10;99.90;;;;;;6156982;23;19998;-72
2022/03/01 10:09:32;;;;;;;8.38;1.30;;;21.10;99.90;;;;;;6179981;23;20017;-72
2022/03/01 10:12:05;;;;;;;13.13;2.17;;;21.10;99.90;;;;;;6156991;23;19998;-72
2022/03/01 10:14:34;;;;;;;11.73;1.50;;;21.20;99.90;;;;;;6180204;23;20001;-72
2022/03/01 10:17:13;;;;;;;11.65;1.92;;;21.10;99.90;;;;;;6156859;23;20021;-72
2022/03/01 10:19:40;;;;;;;8.05;1.73;;;21.20;99.90;;;;;;6156896;23;19998;-72
2022/03/01 10:22:07;;;;;;;7.53;1.20;;;21.20;99.90;;;;;;6156798;23;20012;-73
2022/03/01 10:24:35;;;;;;;7.43;1.52;;;21.20;99.90;;;;;;6156798;23;19997;-72
2022/03/01 10:27:05;;;;;;;8.55;1.98;;;21.20;99.90;;;;;;6156181;23;20008;-71
2022/03/01 10:29:33;;;;;;;8.23;1.67;;;21.20;99.90;;;;;;6156850;23;20443;-71
2022/03/01 10:32:12;;;;;;;9.07;1.88;;;21.20;99.90;;;;;;6156768;23;20025;-72
2022/03/01 10:34:39;;;;;;;8.23;1.40;;;21.20;99.90;;;;;;6156685;23;20026;-72
2022/03/01 10:37:06;;;;;;;13.88;1.67;;;21.20;99.90;;;;;;6155076;23;20010;-72
2022/03/01 10:39:34;;;;;;;13.75;2.10;;;21.20;99.90;;;;;;6157017;23;20064;-72
2022/03/01 10:42:05;;;;;;;10.25;1.60;;;21.10;99.90;;;;;;6156536;23;20012;-73
2022/03/01 10:44:32;;;;;;;15.43;2.10;;;20.90;99.90;;;;;;6156462;23;20038;-72
2022/03/01 10:47:02;;;;;;;16.13;1.73;;;20.80;99.90;;;;;;6156522;23;20486;-71
2022/03/01 10:49:32;;;;;;;8.00;1.33;;;20.60;99.90;;;;;;6156309;23;20378;-71
2022/03/01 10:52:07;;;;;;;7.95;1.17;;;20.50;99.90;;;;;;6156626;23;19997;-71
2022/03/01 10:54:38;;;;;;;7.72;1.17;;;20.40;99.90;;;;;;6156926;23;19998;-71
2022/03/01 10:57:10;;;;;;;4.45;0.80;;;20.30;99.90;;;;;;6179685;23;20006;-72
2022/03/01 10:59:40;;;;;;;9.73;1.30;;;20.30;99.90;;;;;;6156583;23;20008;-71
2022/03/01 11:02:08;;;;;;;6.95;1.50;;;20.30;99.90;;;;;;6154808;23;20013;-71
2022/03/01 11:04:36;;;;;;;9.98;1.27;;;20.30;99.90;;;;;;6156558;23;20029;-71
2022/03/01 11:07:08;;;;;;;6.95;1.20;;;20.30;99.90;;;;;;6156478;23;20001;-71
2022/03/01 11:09:35;;;;;;;11.30;1.70;;;20.30;99.90;;;;;;6156525;23;20002;-71
2022/03/01 11:12:05;;;;;;;11.25;1.80;;;20.30;99.90;;;;;;6156500;23;20001;-71
2022/03/01 11:14:57;;;;;;;10.25;2.03;;;20.30;99.90;;;;;;6156436;23;20081;-71
2022/03/01 11:17:38;;;;;;;11.85;1.65;;;20.30;99.90;;;;;;6156478;23;20009;-71
2022/03/01 11:20:22;;;;;;;11.23;1.88;;;20.30;99.90;;;;;;6156490;23;20005;-71
2022/03/01 11:23:18;;;;;;;7.85;1.50;;;20.30;99.90;;;;;;6156350;23;20081;-71
2022/03/01 11:25:47;;;;;;;12.30;1.50;;;20.30;99.90;;;;;;6152126;23;20012;-71
2022/03/01 11:28:18;;;;;;;12.63;2.20;;;20.30;99.90;;;;;;6156239;23;20001;-71
2022/03/01 11:30:51;;;;;;;12.57;2.03;;;20.30;99.90;;;;;;6179586;23;20006;-71
2022/03/01 11:33:26;;;;;;;17.90;2.58;;;20.30;99.90;;;;;;6156314;23;20044;-70
2022/03/01 11:35:56;;;;;;;11.93;1.95;;;20.30;99.90;;;;;;6156233;23;20006;-71
2022/03/01 11:38:32;;;;;;;18.87;3.13;;;20.40;99.90;;;;;;6156133;23;20063;-71
2022/03/01 11:41:14;;;;;;;15.55;2.85;;;20.40;99.90;;;;;;6179466;23;20319;-71
2022/03/01 11:43:41;;;;;;;12.48;2.58;;;20.40;99.90;;;;;;6156274;23;20012;-71
2022/03/01 11:46:18;;;;;;;14.75;2.67;;;20.50;99.90;;;;;;6156181;23;20056;-71
2022/03/01 11:48:53;;;;;;;10.02;1.92;;;20.60;99.90;;;;;;6155943;23;20001;-71
2022/03/01 11:51:40;;;;;;;20.33;2.90;;;20.60;99.90;;;;;;6155985;23;20068;-71
2022/03/01 11:54:13;;;;;;;14.52;2.97;;;20.70;99.90;;;;;;6154166;23;20033;-71
2022/03/01 11:56:43;;;;;;;14.80;2.50;;;20.80;99.90;;;;;;6156068;23;20453;-71
2022/03/01 11:59:12;;;;;;;15.43;2.20;;;20.80;99.90;;;;;;6155952;23;20059;-71
2022/03/01 12:01:40;;;;;;;14.35;2.65;;;20.80;99.90;;;;;;6179225;23;20447;-70
2022/03/01 12:04:09;;;;;;;13.15;2.25;;;20.90;99.90;;;;;;6178963;23;20024;-71
2022/03/01 12:06:39;;;;;;;11.45;2.33;;;20.90;99.90;;;;;;6155832;23;20002;-71
2022/03/01 12:09:09;;;;;;;14.10;2.47;;;20.90;99.90;;;;;;6155824;23;20087;-70
2022/03/01 12:11:46;;;;;;;13.13;2.75;;;20.90;99.90;;;;;;6155817;23;19998;-71
2022/03/01 12:14:20;;;;;;;13.65;2.40;;;21.00;99.90;;;;;;6155902;23;20008;-70
2022/03/01 12:16:48;;;;;;;16.92;2.70;;;21.00;99.90;;;;;;6155815;23;20028;-71
2022/03/01 12:19:18;;;;;;;12.32;2.42;;;21.00;99.90;;;;;;6154132;23;20009;-71
2022/03/01 12:21:54;;;;;;;14.95;3.00;;;21.00;99.90;;;;;;6155877;23;20005;-72
2022/03/01 12:24:23;;;;;;;18.52;3.47;;;21.00;99.90;;;;;;6154429;23;20001;-72
2022/03/01 12:26:59;;;;;;;20.55;3.10;;;21.00;99.90;;;;;;6155641;23;20005;-71
2022/03/01 12:29:33;;;;;;;14.80;2.28;;;21.00;99.90;;;;;;6155751;23;20002;-70
2022/03/01 12:32:02;;;;;;;14.35;2.55;;;21.00;99.90;;;;;;6155798;23;20024;-70
2022/03/01 12:34:32;;;;;;;16.48;2.63;;;21.00;99.90;;;;;;6155671;23;19997;-71
2022/03/01 12:37:03;;;;;;;13.50;2.50;;;21.00;99.90;;;;;;6155668;23;20490;-71
2022/03/01 12:39:30;;;;;;;14.55;3.30;;;21.00;99.90;;;;;;6155619;23;20001;-71
2022/03/01 12:41:58;;;;;;;19.30;3.42;;;21.00;99.90;;;;;;6153905;23;20064;-71
2022/03/01 12:44:30;;;;;;;16.08;2.85;;;21.00;99.90;;;;;;6155615;23;20331;-70
2022/03/01 12:46:59;;;;;;;17.58;2.58;;;21.00;99.90;;;;;;6155525;23;20006;-71
2022/03/01 12:49:27;;;;;;;12.60;2.75;;;21.00;99.90;;;;;;6178248;23;20017;-71
2022/03/01 12:51:56;;;;;;;15.32;3.25;;;21.00;99.90;;;;;;6155566;23;20010;-71
2022/03/01 12:54:29;;;;;;;15.98;2.65;;;21.00;99.90;;;;;;6155636;23;20379;-70